createdAt,value
2022-08-05T00:01:20.309Z,15.20
2022-08-05T00:03:47.153Z,8.47
2022-08-05T00:06:27.813Z,7.20
2022-08-05T00:09:00.505Z,11.07
2022-08-05T00:11:30.249Z,8.53
2022-08-05T00:14:02.160Z,8.73
2022-08-05T00:16:35.995Z,8.50
2022-08-05T00:19:03.772Z,6.30
2022-08-05T00:21:30.761Z,7.43
2022-08-05T00:24:10.242Z,8.47
2022-08-05T00:26:37.950Z,17.07
2022-08-05T00:29:07.184Z,9.80
2022-08-05T00:31:54.355Z,6.80
2022-08-05T00:34:55.707Z,6.77
2022-08-05T00:37:11.701Z,12.60
2022-08-05T00:39:44.422Z,11.63
2022-08-05T00:42:32.720Z,14.03
2022-08-05T00:44:59.927Z,11.33
2022-08-05T00:47:52.884Z,10.47
2022-08-05T00:50:13.675Z,15.83
2022-08-05T00:52:41.898Z,16.33
2022-08-05T00:55:12.391Z,19.63
2022-08-05T00:57:58.032Z,14.77
2022-08-05T01:00:26.903Z,19.27
2022-08-05T01:02:53.958Z,14.50
2022-08-05T01:05:20.648Z,10.87
2022-08-05T01:08:29.769Z,16.30
2022-08-05T01:10:51.560Z,10.30
2022-08-05T01:13:58.846Z,18.97
2022-08-05T01:16:26.184Z,12.67
2022-08-05T01:18:58.146Z,16.70
2022-08-05T01:21:52.827Z,17.93
2022-08-05T01:24:32.469Z,15.90
2022-08-05T01:27:17.838Z,14.90
2022-08-05T01:29:48.901Z,13.57
2022-08-05T01:32:18.604Z,15.53
2022-08-05T01:34:51.007Z,12.13
2022-08-05T01:37:45.343Z,13.37
2022-08-05T01:40:18.008Z,14.20
2022-08-05T01:43:04.085Z,21.30
2022-08-05T01:45:34.682Z,32.70
2022-08-05T02:27:15.583Z,25.80
2022-08-05T02:29:59.423Z,46.30
2022-08-05T02:32:30.797Z,37.63
2022-08-05T02:35:13.726Z,33.00
2022-08-05T02:37:42.703Z,37.23
2022-08-05T02:40:16.674Z,53.33
2022-08-05T02:42:44.769Z,40.60
2022-08-05T02:45:20.540Z,51.60
2022-08-05T02:48:06.364Z,39.67
2022-08-05T02:50:44.085Z,33.77
2022-08-05T02:53:12.017Z,46.43
2022-08-05T02:55:54.766Z,40.53
2022-08-05T02:58:27.271Z,38.87
2022-08-05T03:00:58.994Z,37.07
2022-08-05T03:03:26.318Z,37.90
2022-08-05T03:06:53.575Z,39.23
2022-08-05T03:08:42.468Z,29.90
2022-08-05T03:11:56.954Z,37.87
2022-08-05T03:14:13.616Z,43.30
2022-08-05T03:16:40.568Z,58.53
2022-08-05T03:19:17.342Z,48.53
2022-08-05T03:21:54.790Z,51.73
2022-08-05T03:24:29.269Z,55.50
2022-08-05T03:26:57.431Z,50.27
2022-08-05T03:29:24.201Z,59.57
2022-08-05T03:32:11.427Z,53.60
2022-08-05T03:34:38.530Z,52.90
2022-08-05T03:37:06.764Z,55.10
2022-08-05T03:39:38.116Z,53.37
2022-08-05T03:42:14.060Z,59.80
2022-08-05T03:44:42.731Z,64.00
2022-08-05T03:47:09.400Z,72.10
2022-08-05T03:49:51.911Z,77.33
2022-08-05T03:52:38.977Z,80.23
2022-08-05T03:56:01.239Z,56.83
2022-08-05T03:58:08.164Z,61.70
2022-08-05T04:00:37.364Z,58.97
2022-08-05T04:03:26.700Z,68.40
2022-08-05T04:05:56.684Z,91.93
2022-08-05T04:08:34.790Z,94.43
2022-08-05T04:11:04.123Z,79.97
2022-08-05T04:13:50.930Z,76.13
2022-08-05T04:16:24.985Z,117.70
2022-08-05T04:19:00.120Z,99.73
2022-08-05T04:22:08.641Z,87.70
2022-08-05T04:24:19.215Z,103.03
2022-08-05T04:26:49.538Z,104.57
2022-08-05T04:29:17.076Z,147.83
2022-08-05T04:31:43.832Z,117.10
2022-08-05T04:34:19.956Z,113.47
2022-08-05T04:36:57.780Z,120.33
2022-08-05T04:39:24.545Z,111.50
2022-08-05T04:41:54.555Z,109.63
2022-08-05T04:44:29.559Z,177.70
2022-08-05T04:47:20.115Z,118.17
2022-08-05T04:50:01.727Z,92.63
2022-08-05T04:52:34.105Z,125.60
2022-08-05T04:55:13.982Z,144.07
2022-08-05T04:57:48.047Z,114.20
2022-08-05T05:00:18.389Z,114.43
2022-08-05T05:02:50.123Z,123.70
2022-08-05T05:05:26.250Z,106.40
2022-08-05T05:08:00.823Z,118.43
2022-08-05T05:10:29.723Z,122.53
2022-08-05T05:12:56.663Z,114.90
2022-08-05T05:15:56.390Z,119.77
2022-08-05T05:18:13.919Z,116.50
2022-08-05T05:20:42.353Z,136.50
2022-08-05T05:23:19.507Z,108.53
2022-08-05T05:25:47.882Z,114.57
2022-08-05T05:28:14.660Z,133.73
2022-08-05T05:30:42.324Z,108.60
2022-08-05T05:33:17.310Z,127.97
2022-08-05T05:35:48.027Z,105.93
2022-08-05T05:38:22.768Z,116.87
2022-08-05T05:40:54.304Z,102.80
2022-08-05T05:43:54.290Z,89.53
2022-08-05T05:46:17.744Z,111.00
2022-08-05T05:48:49.793Z,98.80
2022-08-05T05:51:24.301Z,98.17
2022-08-05T05:53:58.955Z,87.87
2022-08-05T05:56:33.161Z,100.87
2022-08-05T05:59:03.467Z,93.50
2022-08-05T06:01:37.177Z,114.73
2022-08-05T06:04:05.793Z,77.47
2022-08-05T06:06:34.888Z,97.10
2022-08-05T06:09:03.836Z,89.43
2022-08-05T06:11:31.169Z,95.63
2022-08-05T06:13:58.080Z,101.60
2022-08-05T06:16:36.681Z,100.07
2022-08-05T06:19:05.841Z,63.23
2022-08-05T06:21:37.603Z,70.17
2022-08-05T06:24:06.336Z,78.43
2022-08-05T06:26:38.266Z,63.60
2022-08-05T06:29:23.673Z,66.47
2022-08-05T06:31:52.080Z,60.97
2022-08-05T06:34:20.067Z,65.27
2022-08-05T06:36:57.004Z,58.67
2022-08-05T06:39:27.250Z,47.27
2022-08-05T06:41:58.680Z,58.27
2022-08-05T06:44:30.338Z,46.20
2022-08-05T06:46:57.508Z,45.73
2022-08-05T06:50:00.177Z,41.43
2022-08-05T06:52:36.718Z,38.73
2022-08-05T06:54:57.937Z,48.83
2022-08-05T06:58:02.881Z,41.13
2022-08-05T07:00:11.494Z,44.27
2022-08-05T07:02:46.356Z,45.70
2022-08-05T07:05:18.714Z,50.10
2022-08-05T07:07:48.932Z,39.77
2022-08-05T07:10:16.245Z,47.87
2022-08-05T07:13:02.302Z,39.63
2022-08-05T07:16:00.966Z,45.80
2022-08-05T07:18:31.823Z,40.03
2022-08-05T07:21:04.691Z,37.30
2022-08-05T07:23:32.581Z,41.40
2022-08-05T07:25:59.612Z,63.33
2022-08-05T07:28:26.789Z,40.63
2022-08-05T07:30:55.095Z,35.47
2022-08-05T07:33:36.728Z,36.87
2022-08-05T07:36:21.270Z,36.30
2022-08-05T07:38:48.889Z,35.10
2022-08-05T07:42:14.570Z,34.53
2022-08-05T07:44:05.527Z,35.50
2022-08-05T07:46:41.538Z,36.27
2022-08-05T07:49:15.018Z,34.87
2022-08-05T07:51:48.964Z,43.37
2022-08-05T07:54:30.405Z,44.70
2022-08-05T07:57:17.566Z,34.93
2022-08-05T07:59:48.777Z,28.13
2022-08-05T08:02:17.611Z,33.10
2022-08-05T08:04:49.206Z,32.77
2022-08-05T08:07:18.287Z,27.17
2022-08-05T08:09:49.926Z,29.03
2022-08-05T08:12:33.475Z,32.33
2022-08-05T08:15:05.121Z,22.07
2022-08-05T08:17:36.571Z,23.10
2022-08-05T08:20:42.613Z,23.90
2022-08-05T08:22:57.207Z,27.93
2022-08-05T08:25:27.205Z,22.53
2022-08-05T08:28:18.532Z,20.20
2022-08-05T08:30:57.686Z,20.50
2022-08-05T08:33:24.619Z,12.90
2022-08-05T08:36:12.789Z,36.13
2022-08-05T08:38:41.441Z,22.60
2022-08-05T08:41:14.042Z,15.57
2022-08-05T08:45:19.056Z,19.30
2022-08-05T08:46:31.171Z,18.17
2022-08-05T08:50:03.782Z,25.63
2022-08-05T09:35:26.533Z,12.40
2022-08-05T09:38:12.772Z,16.83
2022-08-05T09:40:44.594Z,10.83
2022-08-05T09:44:06.836Z,12.03
2022-08-05T09:46:35.282Z,12.73
2022-08-05T09:49:23.721Z,19.00
2022-08-05T09:52:45.091Z,5.83
2022-08-05T09:59:58.601Z,10.07
2022-08-05T10:02:34.483Z,8.83
2022-08-05T10:08:37.760Z,9.17
2022-08-05T10:11:04.599Z,9.00
2022-08-05T10:17:37.827Z,5.80
2022-08-05T10:36:42.797Z,11.20
2022-08-05T10:40:03.540Z,8.83
2022-08-05T10:42:33.600Z,8.03
2022-08-05T10:45:21.499Z,7.93
2022-08-05T10:48:29.765Z,7.87
2022-08-05T10:50:57.842Z,8.73
2022-08-05T10:53:38.999Z,6.87
2022-08-05T10:56:26.449Z,6.03
2022-08-05T10:59:12.137Z,11.00
2022-08-05T11:01:55.233Z,8.83
2022-08-05T11:09:45.170Z,6.40
2022-08-05T11:50:05.425Z,5.37
2022-08-05T11:52:46.104Z,4.20
2022-08-05T11:55:44.165Z,8.40
2022-08-05T12:01:11.923Z,3.67
2022-08-05T12:04:05.338Z,5.93
2022-08-05T12:06:35.744Z,7.83
2022-08-05T12:09:04.589Z,6.27
2022-08-05T12:11:40.096Z,7.40
2022-08-05T12:14:11.100Z,6.47
2022-08-05T12:16:39.650Z,9.20
2022-08-05T12:19:08.456Z,10.30
2022-08-05T12:21:42.362Z,6.23
2022-08-05T12:24:19.474Z,9.00
2022-08-05T12:30:16.614Z,6.20
2022-08-05T12:32:51.329Z,7.07
2022-08-05T12:35:21.852Z,10.50
2022-08-05T12:38:07.259Z,7.97
2022-08-05T12:40:37.970Z,6.33
2022-08-05T12:43:10.450Z,7.30
2022-08-05T12:45:48.215Z,4.90
2022-08-05T12:48:32.660Z,6.97
2022-08-05T12:56:04.934Z,3.60
2022-08-05T13:02:57.829Z,3.10
2022-08-05T13:05:26.037Z,5.90
2022-08-05T13:11:17.220Z,5.03
2022-08-05T13:14:04.667Z,2.90
2022-08-05T13:16:44.295Z,2.93
2022-08-05T13:19:13.211Z,7.77
2022-08-05T13:21:52.423Z,4.10
2022-08-05T13:24:36.182Z,2.43
2022-08-05T13:27:37.471Z,2.90
2022-08-05T13:30:36.149Z,7.23
2022-08-05T13:33:01.262Z,8.03
2022-08-05T13:35:31.350Z,3.27
2022-08-05T13:38:20.038Z,6.50
2022-08-05T13:40:57.511Z,2.30
2022-08-05T13:43:24.635Z,3.97
2022-08-05T13:54:21.047Z,3.53
2022-08-05T14:00:32.984Z,4.87
2022-08-05T14:04:08.985Z,3.93
2022-08-05T14:08:00.645Z,2.70
2022-08-05T14:10:30.957Z,4.83
2022-08-05T14:18:01.987Z,3.67
2022-08-05T14:22:10.416Z,1.93
2022-08-05T14:35:57.504Z,4.33
2022-08-05T14:46:54.280Z,10.00
2022-08-05T14:49:59.580Z,4.73
2022-08-05T14:56:33.915Z,4.20
2022-08-05T14:59:35.751Z,3.50
2022-08-05T15:02:58.209Z,6.00
2022-08-05T15:06:06.859Z,1.53
2022-08-05T15:08:58.090Z,1.60
2022-08-05T15:11:08.564Z,2.17
2022-08-05T15:14:04.455Z,2.30
2022-08-05T15:16:31.622Z,5.73
2022-08-05T15:18:58.427Z,2.80
2022-08-05T15:21:32.204Z,3.80
2022-08-05T15:24:11.488Z,4.20
2022-08-05T15:26:38.822Z,1.93
2022-08-05T15:29:41.861Z,1.93
2022-08-05T15:32:16.832Z,4.03
2022-08-05T15:34:44.685Z,1.90
2022-08-05T15:38:31.961Z,7.13
2022-08-05T15:40:58.221Z,1.63
2022-08-05T15:50:55.300Z,2.47
2022-08-05T16:01:04.421Z,4.20
2022-08-05T16:03:55.705Z,3.30
2022-08-05T16:06:38.629Z,3.40
2022-08-05T16:09:22.080Z,5.80
2022-08-05T16:12:11.423Z,2.10
2022-08-05T16:15:48.360Z,9.53
2022-08-05T16:18:29.245Z,9.40
2022-08-05T16:29:50.091Z,3.00
2022-08-05T16:32:29.112Z,2.83
2022-08-05T16:35:05.916Z,13.63
2022-08-05T16:38:02.276Z,8.10
2022-08-05T16:40:35.397Z,4.87
2022-08-05T16:43:03.261Z,3.03
2022-08-05T16:46:03.478Z,6.00
2022-08-05T16:48:35.111Z,2.30
2022-08-05T16:51:03.922Z,1.70
2022-08-05T16:54:03.885Z,7.93
2022-08-05T16:56:29.645Z,4.53
2022-08-05T16:58:57.591Z,0.70
2022-08-05T17:01:24.807Z,0.90
2022-08-05T17:04:09.681Z,2.60
2022-08-05T17:06:37.188Z,7.23
2022-08-05T17:09:12.213Z,5.60
2022-08-05T17:11:48.298Z,3.13
2022-08-05T17:14:22.294Z,3.37
2022-08-05T17:17:02.599Z,6.50
2022-08-05T17:19:29.612Z,3.87
2022-08-05T17:44:15.034Z,1.87
2022-08-05T17:56:38.403Z,1.77
2022-08-05T17:59:08.383Z,2.60
2022-08-05T18:02:10.049Z,2.00
2022-08-05T18:04:53.234Z,4.33
2022-08-05T18:07:41.724Z,10.60
2022-08-05T18:10:11.040Z,5.80
2022-08-05T18:12:41.449Z,3.37
2022-08-05T18:15:09.026Z,3.43
2022-08-05T18:21:22.665Z,3.13
2022-08-05T18:43:16.447Z,2.63
2022-08-05T18:54:28.566Z,5.23
2022-08-05T18:57:09.611Z,3.00
2022-08-05T19:00:02.205Z,2.00
2022-08-05T19:02:30.808Z,3.27
2022-08-05T19:06:13.250Z,2.40
2022-08-05T19:08:30.759Z,5.00
2022-08-05T19:12:00.248Z,1.63
2022-08-05T19:14:37.754Z,1.20
2022-08-05T19:17:13.040Z,1.90
2022-08-05T19:20:14.626Z,10.33
2022-08-05T19:23:22.369Z,1.43
2022-08-05T19:34:20.580Z,1.47
2022-08-05T19:36:50.308Z,1.57
2022-08-05T19:39:17.405Z,1.70
2022-08-05T19:42:05.823Z,1.27
2022-08-05T19:44:44.623Z,1.30
2022-08-05T19:47:18.449Z,4.00
2022-08-05T19:58:19.499Z,1.00
2022-08-05T20:00:31.669Z,4.03
2022-08-05T20:03:09.484Z,6.17
2022-08-05T20:05:51.240Z,3.20
2022-08-05T20:12:08.805Z,10.00
2022-08-05T20:14:38.105Z,9.73
2022-08-05T20:17:06.511Z,2.57
2022-08-05T20:19:36.265Z,7.30
2022-08-05T20:22:10.078Z,6.50
2022-08-05T20:24:38.471Z,5.80
2022-08-05T20:27:11.252Z,4.93
2022-08-05T20:29:39.597Z,2.17
2022-08-05T20:32:07.829Z,2.73
2022-08-05T20:34:37.330Z,3.93
2022-08-05T20:37:17.744Z,10.70
2022-08-05T20:39:54.979Z,5.43
2022-08-05T20:42:25.443Z,2.83
2022-08-05T20:44:57.557Z,4.20
2022-08-05T20:47:32.108Z,9.10
2022-08-05T20:49:59.988Z,4.20
2022-08-05T20:52:32.989Z,2.53
2022-08-05T20:55:56.899Z,4.13
2022-08-05T20:57:52.581Z,10.43
2022-08-05T21:00:49.851Z,2.00
2022-08-05T21:03:16.676Z,3.43
2022-08-05T21:05:54.449Z,3.30
2022-08-05T21:08:35.942Z,3.33
2022-08-05T21:11:15.139Z,7.93
2022-08-05T21:13:59.724Z,3.67
2022-08-05T21:16:29.738Z,8.40
2022-08-05T21:18:59.849Z,4.97
2022-08-05T21:21:44.194Z,6.80
2022-08-05T21:24:21.343Z,8.07
2022-08-05T21:26:56.108Z,7.30
2022-08-05T21:29:31.703Z,2.67
2022-08-05T21:32:00.082Z,6.63
2022-08-05T21:34:28.177Z,11.33
2022-08-05T21:36:55.766Z,2.90
2022-08-05T21:39:28.214Z,5.80
2022-08-05T21:42:01.626Z,6.23
2022-08-05T21:44:30.062Z,7.07
2022-08-05T21:46:58.076Z,4.70
2022-08-05T21:49:48.108Z,4.70
2022-08-05T21:52:26.989Z,3.70
2022-08-05T21:54:57.806Z,9.80
2022-08-05T21:57:33.800Z,6.93
2022-08-05T22:00:05.976Z,3.10
2022-08-05T22:02:41.702Z,4.70
2022-08-05T22:05:10.243Z,7.37
2022-08-05T22:07:40.081Z,7.80
2022-08-05T22:10:37.712Z,1.97
2022-08-05T22:14:32.517Z,4.73
2022-08-05T22:16:00.568Z,9.23
2022-08-05T22:18:34.649Z,5.97
2022-08-05T22:21:04.086Z,2.90
2022-08-05T22:24:03.007Z,7.53
2022-08-05T22:26:54.102Z,6.63
2022-08-05T22:29:26.619Z,8.47
2022-08-05T22:31:59.373Z,6.10
2022-08-05T22:34:30.063Z,13.10
2022-08-05T22:36:58.414Z,10.40
2022-08-05T22:39:30.970Z,14.73
2022-08-05T22:42:11.549Z,7.53
2022-08-05T22:44:56.327Z,3.50
2022-08-05T22:47:29.613Z,10.13
2022-08-05T22:50:21.720Z,5.80
2022-08-05T22:52:44.956Z,13.00
2022-08-05T22:55:18.886Z,8.93
2022-08-05T22:57:49.026Z,4.47
2022-08-05T23:00:17.850Z,10.33
2022-08-05T23:02:48.141Z,6.00
2022-08-05T23:05:15.451Z,6.30
2022-08-05T23:07:45.332Z,5.43
2022-08-05T23:10:16.350Z,5.53
2022-08-05T23:12:47.411Z,3.90
2022-08-05T23:15:18.195Z,9.00
2022-08-05T23:18:01.601Z,12.20
2022-08-05T23:20:31.462Z,2.93
2022-08-05T23:22:59.111Z,3.77
2022-08-05T23:25:51.364Z,4.67
2022-08-05T23:28:13.126Z,3.50
2022-08-05T23:30:43.538Z,9.37
2022-08-05T23:33:22.404Z,10.20
2022-08-05T23:35:56.171Z,8.80
2022-08-05T23:38:24.217Z,2.60
2022-08-05T23:40:52.882Z,5.50
2022-08-05T23:43:25.031Z,8.77
2022-08-05T23:46:20.298Z,4.33
2022-08-05T23:49:00.919Z,8.43
2022-08-05T23:51:53.291Z,10.43
2022-08-05T23:54:26.065Z,4.13
2022-08-05T23:56:53.743Z,9.70
2022-08-05T23:59:20.377Z,9.57
